createdAt,value
2018-08-25T00:00:07.869Z,1019.87852179
2018-08-25T00:00:20.297Z,1019.87852179
2018-08-25T00:00:32.723Z,1019.87852179
2018-08-25T00:00:45.133Z,1019.87852179
2018-08-25T00:00:57.563Z,1019.87852179
2018-08-25T00:01:10.008Z,1019.87852179
2018-08-25T00:01:22.446Z,1019.87852179
2018-08-25T00:01:34.874Z,1019.87852179
2018-08-25T00:01:47.297Z,1019.87852179
2018-08-25T00:01:59.714Z,1019.87852179
2018-08-25T00:02:12.119Z,1019.91238567
2018-08-25T00:02:24.532Z,1019.91238567
2018-08-25T00:02:36.932Z,1019.91238567
2018-08-25T00:02:49.569Z,1019.91238567
2018-08-25T00:03:01.995Z,1019.87852179
2018-08-25T00:03:14.401Z,1019.87852179
2018-08-25T00:03:26.801Z,1019.87852179
2018-08-25T00:03:39.233Z,1019.87852179
2018-08-25T00:03:51.646Z,1019.87852179
2018-08-25T00:04:04.051Z,1019.91238567
2018-08-25T00:04:16.465Z,1019.91238567
2018-08-25T00:04:28.859Z,1019.91238567
2018-08-25T00:04:41.290Z,1019.91238567
2018-08-25T00:04:53.716Z,1019.91238567
2018-08-25T00:05:06.129Z,1019.84465791
2018-08-25T00:05:18.685Z,1019.84465791
2018-08-25T00:05:31.183Z,1019.84465791
2018-08-25T00:05:43.663Z,1019.84465791
2018-08-25T00:05:56.086Z,1019.84465791
2018-08-25T00:06:08.514Z,1019.94624955
2018-08-25T00:06:20.929Z,1019.94624955
2018-08-25T00:06:33.323Z,1019.94624955
2018-08-25T00:06:45.743Z,1019.94624955
2018-08-25T00:06:58.165Z,1019.94624955
2018-08-25T00:07:10.662Z,1019.84465791
2018-08-25T00:07:23.100Z,1019.84465791
2018-08-25T00:07:35.516Z,1019.84465791
2018-08-25T00:07:47.947Z,1019.84465791
2018-08-25T00:08:00.351Z,1019.84465791
2018-08-25T00:08:12.862Z,1019.81079403
2018-08-25T00:08:25.284Z,1019.81079403
2018-08-25T00:08:37.706Z,1019.81079403
2018-08-25T00:08:50.114Z,1019.81079403
2018-08-25T00:09:02.554Z,1019.77693015
2018-08-25T00:09:14.977Z,1019.77693015
2018-08-25T00:09:27.427Z,1019.77693015
2018-08-25T00:09:39.846Z,1019.77693015
2018-08-25T00:09:52.283Z,1019.77693015
2018-08-25T00:10:04.839Z,1019.91238567
2018-08-25T00:10:17.239Z,1019.91238567
2018-08-25T00:10:29.827Z,1019.91238567
2018-08-25T00:10:42.245Z,1019.91238567
2018-08-25T00:10:54.664Z,1019.91238567
2018-08-25T00:11:07.081Z,1019.84465791
2018-08-25T00:11:19.494Z,1019.84465791
2018-08-25T00:11:31.922Z,1019.84465791
2018-08-25T00:11:44.323Z,1019.84465791
2018-08-25T00:11:56.744Z,1019.84465791
2018-08-25T00:12:09.178Z,1019.81079403
2018-08-25T00:12:21.644Z,1019.81079403
2018-08-25T00:12:34.058Z,1019.81079403
2018-08-25T00:12:46.473Z,1019.81079403
2018-08-25T00:12:58.894Z,1019.81079403
2018-08-25T00:13:11.325Z,1019.84465791
2018-08-25T00:13:23.738Z,1019.84465791
2018-08-25T00:13:36.153Z,1019.84465791
2018-08-25T00:13:48.564Z,1019.84465791
2018-08-25T00:14:00.968Z,1019.84465791
2018-08-25T00:14:13.386Z,1019.74306626
2018-08-25T00:14:25.824Z,1019.74306626
2018-08-25T00:14:38.242Z,1019.74306626
2018-08-25T00:14:50.641Z,1019.74306626
2018-08-25T00:15:03.063Z,1019.81079403
2018-08-25T00:15:15.495Z,1019.81079403
2018-08-25T00:15:27.942Z,1019.81079403
2018-08-25T00:15:40.350Z,1019.81079403
2018-08-25T00:15:52.751Z,1019.81079403
2018-08-25T00:16:05.175Z,1019.74306626
2018-08-25T00:16:17.595Z,1019.74306626
2018-08-25T00:16:30.062Z,1019.74306626
2018-08-25T00:16:42.520Z,1019.74306626
2018-08-25T00:16:54.962Z,1019.74306626
2018-08-25T00:17:07.385Z,1019.74306626
2018-08-25T00:17:19.815Z,1019.74306626
2018-08-25T00:17:32.220Z,1019.74306626
2018-08-25T00:17:44.681Z,1019.74306626
2018-08-25T00:17:57.091Z,1019.74306626
2018-08-25T00:18:09.493Z,1019.6753385
2018-08-25T00:18:21.910Z,1019.6753385
2018-08-25T00:18:34.308Z,1019.6753385
2018-08-25T00:18:46.919Z,1019.6753385
2018-08-25T00:18:59.329Z,1019.6753385
2018-08-25T00:19:11.756Z,1019.74306626
2018-08-25T00:19:24.172Z,1019.74306626
2018-08-25T00:19:36.593Z,1019.74306626
2018-08-25T00:19:48.996Z,1019.74306626
2018-08-25T00:20:01.420Z,1019.70920238
2018-08-25T00:20:13.860Z,1019.70920238
2018-08-25T00:20:26.289Z,1019.70920238
2018-08-25T00:20:38.713Z,1019.70920238
2018-08-25T00:20:51.206Z,1019.70920238
2018-08-25T00:21:03.616Z,1019.64147462
2018-08-25T00:21:16.176Z,1019.64147462
2018-08-25T00:21:28.576Z,1019.64147462
2018-08-25T00:21:41.000Z,1019.64147462
2018-08-25T00:21:53.404Z,1019.64147462
2018-08-25T00:22:05.806Z,1019.6753385
2018-08-25T00:22:18.203Z,1019.6753385
2018-08-25T00:22:30.712Z,1019.6753385
2018-08-25T00:22:43.132Z,1019.6753385
2018-08-25T00:22:55.546Z,1019.6753385
2018-08-25T00:23:07.951Z,1019.70920238
2018-08-25T00:23:20.353Z,1019.70920238
2018-08-25T00:23:32.867Z,1019.70920238
2018-08-25T00:23:45.318Z,1019.70920238
2018-08-25T00:23:57.721Z,1019.70920238
2018-08-25T00:24:10.287Z,1019.64147462
2018-08-25T00:24:22.701Z,1019.64147462
2018-08-25T00:24:35.119Z,1019.64147462
2018-08-25T00:24:47.530Z,1019.64147462
2018-08-25T00:24:59.929Z,1019.64147462
2018-08-25T00:25:12.329Z,1019.64147462
2018-08-25T00:25:24.732Z,1019.64147462
2018-08-25T00:25:37.152Z,1019.64147462
2018-08-25T00:25:49.544Z,1019.64147462
2018-08-25T00:26:01.939Z,1019.70920238
2018-08-25T00:26:14.409Z,1019.70920238
2018-08-25T00:26:26.866Z,1019.70920238
2018-08-25T00:26:39.272Z,1019.70920238
2018-08-25T00:26:51.689Z,1019.70920238
2018-08-25T00:27:04.110Z,1019.64147462
2018-08-25T00:27:16.515Z,1019.64147462
2018-08-25T00:27:28.916Z,1019.64147462
2018-08-25T00:27:41.312Z,1019.64147462
2018-08-25T00:27:53.725Z,1019.64147462
2018-08-25T00:28:06.235Z,1019.6753385
2018-08-25T00:28:18.634Z,1019.6753385
2018-08-25T00:28:31.040Z,1019.6753385
2018-08-25T00:28:43.461Z,1019.6753385
2018-08-25T00:28:55.875Z,1019.6753385
2018-08-25T00:29:08.285Z,1019.70920238
2018-08-25T00:29:20.702Z,1019.70920238
2018-08-25T00:29:33.127Z,1019.70920238
2018-08-25T00:29:45.555Z,1019.70920238
2018-08-25T00:29:57.977Z,1019.70920238
2018-08-25T00:30:10.398Z,1019.6753385
2018-08-25T00:30:22.957Z,1019.6753385
2018-08-25T00:30:35.366Z,1019.6753385
2018-08-25T00:30:47.777Z,1019.6753385
2018-08-25T00:31:00.174Z,1019.6753385
2018-08-25T00:31:12.647Z,1019.6753385
2018-08-25T00:31:25.034Z,1019.6753385
2018-08-25T00:31:37.444Z,1019.6753385
2018-08-25T00:31:49.843Z,1019.6753385
2018-08-25T00:32:02.248Z,1019.64147462
2018-08-25T00:32:14.667Z,1019.64147462
2018-08-25T00:32:27.076Z,1019.64147462
2018-08-25T00:32:39.720Z,1019.64147462
2018-08-25T00:32:52.122Z,1019.64147462
2018-08-25T00:33:04.550Z,1019.6753385
2018-08-25T00:33:16.986Z,1019.6753385
2018-08-25T00:33:29.392Z,1019.6753385
2018-08-25T00:33:41.795Z,1019.6753385
2018-08-25T00:33:54.260Z,1019.6753385
2018-08-25T00:34:06.714Z,1019.60761074
2018-08-25T00:34:19.304Z,1019.60761074
2018-08-25T00:34:31.735Z,1019.60761074
2018-08-25T00:34:44.146Z,1019.60761074
2018-08-25T00:34:56.556Z,1019.60761074
2018-08-25T00:35:08.987Z,1019.60761074
2018-08-25T00:35:21.447Z,1019.60761074
2018-08-25T00:35:33.853Z,1019.60761074
2018-08-25T00:35:46.263Z,1019.60761074
2018-08-25T00:35:58.670Z,1019.60761074
2018-08-25T00:36:11.091Z,1019.60761074
2018-08-25T00:36:23.530Z,1019.60761074
2018-08-25T00:36:35.930Z,1019.60761074
2018-08-25T00:36:48.330Z,1019.60761074
2018-08-25T00:37:00.733Z,1019.60761074
2018-08-25T00:37:13.142Z,1019.57374686
2018-08-25T00:37:25.581Z,1019.57374686
2018-08-25T00:37:38.023Z,1019.57374686
2018-08-25T00:37:50.493Z,1019.57374686
2018-08-25T00:38:02.922Z,1019.6753385
2018-08-25T00:38:15.318Z,1019.6753385
2018-08-25T00:38:27.737Z,1019.6753385
2018-08-25T00:38:40.157Z,1019.6753385
2018-08-25T00:38:52.573Z,1019.6753385
2018-08-25T00:39:04.964Z,1019.64147462
2018-08-25T00:39:17.379Z,1019.64147462
2018-08-25T00:39:29.829Z,1019.64147462
2018-08-25T00:39:42.256Z,1019.64147462
2018-08-25T00:39:54.675Z,1019.64147462
2018-08-25T00:40:07.089Z,1019.74306626
2018-08-25T00:40:19.534Z,1019.74306626
2018-08-25T00:40:31.927Z,1019.74306626
2018-08-25T00:40:44.326Z,1019.74306626
2018-08-25T00:40:56.746Z,1019.74306626
2018-08-25T00:41:09.161Z,1019.77693015
2018-08-25T00:41:21.568Z,1019.77693015
2018-08-25T00:41:33.959Z,1019.77693015
2018-08-25T00:41:46.363Z,1019.77693015
2018-08-25T00:41:58.754Z,1019.77693015
2018-08-25T00:42:11.152Z,1019.74306626
2018-08-25T00:42:23.593Z,1019.74306626
2018-08-25T00:42:35.986Z,1019.74306626
2018-08-25T00:42:48.432Z,1019.74306626
2018-08-25T00:43:00.839Z,1019.74306626
2018-08-25T00:43:13.243Z,1019.81079403
2018-08-25T00:43:25.652Z,1019.81079403
2018-08-25T00:43:38.053Z,1019.81079403
2018-08-25T00:43:50.461Z,1019.81079403
2018-08-25T00:44:02.889Z,1019.77693015
2018-08-25T00:44:15.304Z,1019.77693015
2018-08-25T00:44:27.732Z,1019.77693015
2018-08-25T00:44:40.164Z,1019.77693015
2018-08-25T00:44:52.562Z,1019.77693015
2018-08-25T00:45:04.972Z,1019.81079403
2018-08-25T00:45:17.405Z,1019.81079403
2018-08-25T00:45:29.868Z,1019.81079403
2018-08-25T00:45:42.275Z,1019.81079403
2018-08-25T00:45:54.751Z,1019.81079403
2018-08-25T00:46:07.190Z,1019.81079403
2018-08-25T00:46:19.637Z,1019.81079403
2018-08-25T00:46:32.042Z,1019.81079403
2018-08-25T00:46:44.447Z,1019.81079403
2018-08-25T00:46:56.856Z,1019.81079403
2018-08-25T00:47:09.270Z,1019.87852179
2018-08-25T00:47:21.669Z,1019.87852179
2018-08-25T00:47:34.082Z,1019.87852179
2018-08-25T00:47:47.210Z,1019.87852179
2018-08-25T00:48:00.644Z,1019.87852179
2018-08-25T00:48:13.052Z,1019.74306626
2018-08-25T00:48:25.498Z,1019.74306626
2018-08-25T00:48:37.904Z,1019.74306626
2018-08-25T00:48:50.374Z,1019.74306626
2018-08-25T00:49:02.786Z,1019.81079403
2018-08-25T00:49:15.326Z,1019.81079403
2018-08-25T00:49:27.737Z,1019.81079403
2018-08-25T00:49:40.134Z,1019.81079403
2018-08-25T00:49:52.573Z,1019.81079403
2018-08-25T00:50:04.988Z,1019.84465791
2018-08-25T00:50:17.412Z,1019.84465791
2018-08-25T00:50:29.822Z,1019.84465791
2018-08-25T00:50:42.226Z,1019.84465791
2018-08-25T00:50:54.649Z,1019.84465791
2018-08-25T00:51:07.058Z,1019.81079403
2018-08-25T00:51:19.540Z,1019.81079403
2018-08-25T00:51:31.981Z,1019.81079403
2018-08-25T00:51:44.392Z,1019.81079403
2018-08-25T00:51:56.793Z,1019.81079403
2018-08-25T00:52:09.234Z,1019.77693015
2018-08-25T00:52:21.851Z,1019.77693015
2018-08-25T00:52:34.245Z,1019.77693015
2018-08-25T00:52:46.655Z,1019.77693015
2018-08-25T00:52:59.052Z,1019.77693015
2018-08-25T00:53:11.458Z,1019.74306626
2018-08-25T00:53:23.891Z,1019.74306626
2018-08-25T00:53:36.299Z,1019.74306626
2018-08-25T00:53:48.708Z,1019.74306626
2018-08-25T00:54:01.121Z,1019.74306626
2018-08-25T00:54:13.529Z,1019.77693015
2018-08-25T00:54:25.989Z,1019.77693015
2018-08-25T00:54:38.389Z,1019.77693015
2018-08-25T00:54:50.794Z,1019.77693015
2018-08-25T00:55:03.193Z,1019.77693015
2018-08-25T00:55:15.594Z,1019.77693015
2018-08-25T00:55:27.975Z,1019.77693015
2018-08-25T00:55:40.709Z,1019.77693015
2018-08-25T00:55:53.101Z,1019.77693015
2018-08-25T00:56:05.511Z,1019.74306626
2018-08-25T00:56:17.942Z,1019.74306626
2018-08-25T00:56:30.376Z,1019.74306626
2018-08-25T00:56:42.781Z,1019.74306626
2018-08-25T00:56:55.164Z,1019.74306626
2018-08-25T00:57:07.579Z,1019.74306626
2018-08-25T00:57:19.998Z,1019.74306626
2018-08-25T00:57:33.027Z,1019.74306626
2018-08-25T00:57:45.449Z,1019.74306626
2018-08-25T00:57:57.874Z,1019.74306626
2018-08-25T00:58:10.296Z,1019.77693015
2018-08-25T00:58:22.687Z,1019.77693015
2018-08-25T00:58:35.087Z,1019.77693015
2018-08-25T00:58:47.543Z,1019.77693015
2018-08-25T00:58:59.958Z,1019.77693015
2018-08-25T00:59:12.478Z,1019.60761074
2018-08-25T00:59:25.722Z,1019.60761074
2018-08-25T00:59:38.814Z,1019.60761074
2018-08-25T00:59:51.227Z,1019.60761074
2018-08-25T01:00:03.656Z,1019.70920238
2018-08-25T01:00:16.087Z,1019.70920238
2018-08-25T01:00:28.535Z,1019.70920238
2018-08-25T01:00:40.990Z,1019.70920238
2018-08-25T01:00:53.474Z,1019.70920238
2018-08-25T01:01:05.902Z,1019.6753385
2018-08-25T01:01:18.329Z,1019.6753385
2018-08-25T01:01:30.721Z,1019.6753385
2018-08-25T01:01:43.144Z,1019.6753385
2018-08-25T01:01:55.561Z,1019.6753385
2018-08-25T01:02:07.976Z,1019.70920238
2018-08-25T01:02:20.418Z,1019.70920238
2018-08-25T01:02:32.825Z,1019.70920238
2018-08-25T01:02:45.360Z,1019.70920238
2018-08-25T01:02:57.863Z,1019.70920238
2018-08-25T01:03:10.285Z,1019.60761074
2018-08-25T01:03:22.697Z,1019.60761074
2018-08-25T01:03:35.104Z,1019.60761074
2018-08-25T01:03:47.507Z,1019.60761074
2018-08-25T01:03:59.920Z,1019.60761074
2018-08-25T01:04:12.393Z,1019.6753385
2018-08-25T01:04:24.807Z,1019.6753385
2018-08-25T01:04:37.227Z,1019.6753385
2018-08-25T01:04:49.649Z,1019.6753385
2018-08-25T01:05:02.063Z,1019.70920238
2018-08-25T01:05:14.462Z,1019.70920238
2018-08-25T01:05:26.931Z,1019.70920238
2018-08-25T01:05:39.335Z,1019.70920238
2018-08-25T01:05:51.744Z,1019.70920238
2018-08-25T01:06:04.141Z,1019.70920238
2018-08-25T01:06:16.541Z,1019.70920238
2018-08-25T01:06:28.971Z,1019.70920238
2018-08-25T01:06:41.419Z,1019.70920238
2018-08-25T01:06:53.858Z,1019.70920238
2018-08-25T01:07:06.278Z,1019.74306626
2018-08-25T01:07:18.725Z,1019.74306626
2018-08-25T01:07:31.137Z,1019.74306626
2018-08-25T01:07:43.600Z,1019.74306626
2018-08-25T01:07:56.007Z,1019.74306626
2018-08-25T01:08:08.468Z,1019.77693015
2018-08-25T01:08:20.857Z,1019.77693015
2018-08-25T01:08:33.271Z,1019.77693015
2018-08-25T01:08:45.682Z,1019.77693015
2018-08-25T01:08:58.118Z,1019.77693015
2018-08-25T01:09:10.536Z,1019.87852179
2018-08-25T01:09:22.948Z,1019.87852179
2018-08-25T01:09:35.369Z,1019.87852179
2018-08-25T01:09:47.796Z,1019.87852179
2018-08-25T01:10:00.203Z,1019.87852179
2018-08-25T01:10:12.832Z,1019.81079403
2018-08-25T01:10:25.433Z,1019.81079403
2018-08-25T01:10:37.840Z,1019.81079403
2018-08-25T01:10:50.249Z,1019.81079403
2018-08-25T01:11:02.654Z,1019.81079403
2018-08-25T01:11:15.072Z,1019.81079403
2018-08-25T01:11:27.505Z,1019.81079403
2018-08-25T01:11:39.911Z,1019.81079403
2018-08-25T01:11:52.316Z,1019.81079403
2018-08-25T01:12:04.747Z,1019.91238567
2018-08-25T01:12:17.149Z,1019.91238567
2018-08-25T01:12:29.572Z,1019.91238567
2018-08-25T01:12:41.999Z,1019.91238567
2018-08-25T01:12:54.402Z,1019.91238567
2018-08-25T01:13:06.850Z,1019.81079403
2018-08-25T01:13:19.248Z,1019.81079403
2018-08-25T01:13:31.657Z,1019.81079403
2018-08-25T01:13:44.089Z,1019.81079403
2018-08-25T01:13:56.476Z,1019.81079403
2018-08-25T01:14:08.874Z,1019.87852179
2018-08-25T01:14:21.280Z,1019.87852179
2018-08-25T01:14:33.671Z,1019.87852179
2018-08-25T01:14:46.091Z,1019.87852179
2018-08-25T01:14:58.484Z,1019.87852179
2018-08-25T01:15:10.897Z,1019.87852179
2018-08-25T01:15:23.450Z,1019.87852179
2018-08-25T01:15:36.237Z,1019.87852179
2018-08-25T01:15:50.055Z,1019.87852179
2018-08-25T01:16:02.447Z,1019.87852179
2018-08-25T01:16:14.864Z,1019.87852179
2018-08-25T01:16:27.293Z,1019.87852179
2018-08-25T01:16:39.723Z,1019.87852179
2018-08-25T01:16:52.157Z,1019.87852179
2018-08-25T01:17:04.612Z,1019.87852179
2018-08-25T01:17:17.020Z,1019.87852179
2018-08-25T01:17:29.444Z,1019.87852179
2018-08-25T01:17:41.854Z,1019.87852179
2018-08-25T01:17:54.309Z,1019.87852179
2018-08-25T01:18:06.731Z,1019.87852179
2018-08-25T01:18:19.143Z,1019.87852179
2018-08-25T01:18:31.565Z,1019.87852179
2018-08-25T01:18:44.310Z,1019.87852179
2018-08-25T01:18:56.726Z,1019.87852179
2018-08-25T01:19:09.144Z,1019.87852179
2018-08-25T01:19:21.581Z,1019.87852179
2018-08-25T01:19:33.995Z,1019.87852179
2018-08-25T01:19:46.429Z,1019.87852179
2018-08-25T01:19:58.842Z,1019.87852179
2018-08-25T01:20:11.254Z,1019.94624955
2018-08-25T01:20:23.664Z,1019.94624955
2018-08-25T01:20:36.219Z,1019.94624955
2018-08-25T01:20:48.628Z,1019.94624955
2018-08-25T01:21:01.050Z,1019.94624955
2018-08-25T01:21:13.467Z,1019.87852179
2018-08-25T01:21:25.881Z,1019.87852179
2018-08-25T01:21:38.294Z,1019.87852179
2018-08-25T01:21:50.695Z,1019.87852179
2018-08-25T01:22:03.096Z,1019.84465791
2018-08-25T01:22:15.552Z,1019.84465791
2018-08-25T01:22:27.945Z,1019.84465791
2018-08-25T01:22:40.470Z,1019.84465791
2018-08-25T01:22:52.878Z,1019.84465791
2018-08-25T01:23:05.327Z,1019.87852179
2018-08-25T01:23:17.805Z,1019.87852179
2018-08-25T01:23:30.252Z,1019.87852179
2018-08-25T01:23:42.683Z,1019.87852179
2018-08-25T01:23:55.081Z,1019.87852179
2018-08-25T01:24:07.627Z,1019.91238567
2018-08-25T01:24:20.035Z,1019.91238567
2018-08-25T01:24:32.443Z,1019.91238567
2018-08-25T01:24:44.869Z,1019.91238567
2018-08-25T01:24:57.300Z,1019.91238567
2018-08-25T01:25:09.717Z,1019.84465791
2018-08-25T01:25:22.133Z,1019.84465791
2018-08-25T01:25:34.566Z,1019.84465791
2018-08-25T01:25:46.969Z,1019.84465791
2018-08-25T01:25:59.368Z,1019.84465791
2018-08-25T01:26:11.798Z,1019.81079403
2018-08-25T01:26:24.193Z,1019.81079403
2018-08-25T01:26:36.608Z,1019.81079403
2018-08-25T01:26:49.034Z,1019.81079403
2018-08-25T01:27:01.441Z,1019.87852179
2018-08-25T01:27:13.833Z,1019.87852179
2018-08-25T01:27:26.253Z,1019.87852179
2018-08-25T01:27:38.661Z,1019.87852179
2018-08-25T01:27:51.064Z,1019.87852179
2018-08-25T01:28:03.877Z,1019.94624955
2018-08-25T01:28:16.290Z,1019.94624955
2018-08-25T01:28:28.705Z,1019.94624955
2018-08-25T01:28:41.115Z,1019.94624955
2018-08-25T01:28:53.524Z,1019.94624955
2018-08-25T01:29:05.927Z,1019.81079403
2018-08-25T01:29:18.342Z,1019.81079403
2018-08-25T01:29:30.752Z,1019.81079403
2018-08-25T01:29:43.169Z,1019.81079403
2018-08-25T01:29:55.600Z,1019.81079403
2018-08-25T01:30:08.017Z,1019.91238567
2018-08-25T01:30:20.442Z,1019.91238567
2018-08-25T01:30:32.841Z,1019.91238567
2018-08-25T01:30:45.243Z,1019.91238567
2018-08-25T01:30:57.705Z,1019.91238567
2018-08-25T01:31:10.125Z,1019.84465791
2018-08-25T01:31:22.540Z,1019.84465791
2018-08-25T01:31:34.965Z,1019.84465791
2018-08-25T01:31:47.389Z,1019.84465791
2018-08-25T01:31:59.802Z,1019.84465791
2018-08-25T01:32:12.237Z,1019.87852179
2018-08-25T01:32:24.650Z,1019.87852179
2018-08-25T01:32:37.227Z,1019.87852179
2018-08-25T01:32:49.633Z,1019.87852179
2018-08-25T01:33:02.073Z,1019.84465791
2018-08-25T01:33:14.518Z,1019.84465791
2018-08-25T01:33:26.974Z,1019.84465791
2018-08-25T01:33:39.386Z,1019.84465791
2018-08-25T01:33:51.826Z,1019.84465791
2018-08-25T01:34:04.242Z,1019.87852179
2018-08-25T01:34:16.819Z,1019.87852179
2018-08-25T01:34:29.230Z,1019.87852179
2018-08-25T01:34:41.708Z,1019.87852179
2018-08-25T01:34:54.118Z,1019.87852179
2018-08-25T01:35:06.529Z,1019.81079403
2018-08-25T01:35:18.946Z,1019.81079403
2018-08-25T01:35:31.380Z,1019.81079403
2018-08-25T01:35:43.818Z,1019.81079403
2018-08-25T01:35:56.224Z,1019.81079403
2018-08-25T01:36:08.640Z,1019.77693015
2018-08-25T01:36:21.078Z,1019.77693015
2018-08-25T01:36:33.519Z,1019.77693015
2018-08-25T01:36:45.937Z,1019.77693015
2018-08-25T01:36:58.413Z,1019.77693015
2018-08-25T01:37:10.807Z,1019.87852179
2018-08-25T01:37:23.231Z,1019.87852179
2018-08-25T01:37:35.645Z,1019.87852179
2018-08-25T01:37:48.046Z,1019.87852179
2018-08-25T01:38:00.461Z,1019.87852179
2018-08-25T01:38:12.883Z,1019.81079403
2018-08-25T01:38:25.340Z,1019.81079403
2018-08-25T01:38:37.773Z,1019.81079403
2018-08-25T01:38:50.215Z,1019.81079403
2018-08-25T01:39:02.631Z,1019.74306626
2018-08-25T01:39:15.055Z,1019.74306626
2018-08-25T01:39:27.485Z,1019.74306626
2018-08-25T01:39:39.892Z,1019.74306626
2018-08-25T01:39:52.292Z,1019.74306626
2018-08-25T01:40:04.699Z,1019.84465791
2018-08-25T01:40:17.116Z,1019.84465791
2018-08-25T01:40:29.525Z,1019.84465791
2018-08-25T01:40:41.961Z,1019.84465791
2018-08-25T01:40:54.359Z,1019.84465791
2018-08-25T01:41:06.771Z,1019.84465791
2018-08-25T01:41:19.181Z,1019.84465791
2018-08-25T01:41:31.604Z,1019.84465791
2018-08-25T01:41:44.006Z,1019.84465791
2018-08-25T01:41:56.413Z,1019.84465791
2018-08-25T01:42:08.827Z,1019.91238567
2018-08-25T01:42:21.249Z,1019.91238567
2018-08-25T01:42:33.644Z,1019.91238567
2018-08-25T01:42:46.049Z,1019.91238567
2018-08-25T01:42:58.512Z,1019.91238567
2018-08-25T01:43:10.979Z,1019.91238567
2018-08-25T01:43:23.395Z,1019.91238567
2018-08-25T01:43:35.799Z,1019.91238567
2018-08-25T01:43:48.261Z,1019.91238567
2018-08-25T01:44:00.673Z,1019.91238567
2018-08-25T01:44:13.117Z,1019.91238567
2018-08-25T01:44:25.557Z,1019.91238567
2018-08-25T01:44:38.016Z,1019.91238567
2018-08-25T01:44:50.413Z,1019.91238567
2018-08-25T01:45:02.830Z,1019.98011344
2018-08-25T01:45:15.240Z,1019.98011344
2018-08-25T01:45:27.652Z,1019.98011344
2018-08-25T01:45:40.111Z,1019.98011344
2018-08-25T01:45:52.499Z,1019.98011344
2018-08-25T01:46:04.892Z,1019.94624955
2018-08-25T01:46:17.302Z,1019.94624955
2018-08-25T01:46:29.692Z,1019.94624955
2018-08-25T01:46:42.090Z,1019.94624955
2018-08-25T01:46:54.507Z,1019.94624955
2018-08-25T01:47:06.913Z,1019.91238567
2018-08-25T01:47:19.308Z,1019.91238567
2018-08-25T01:47:31.711Z,1019.91238567
2018-08-25T01:47:44.103Z,1019.91238567
2018-08-25T01:47:56.712Z,1019.91238567
2018-08-25T01:48:09.120Z,1019.87852179
2018-08-25T01:48:21.527Z,1019.87852179
2018-08-25T01:48:33.928Z,1019.87852179
2018-08-25T01:48:46.377Z,1019.87852179
2018-08-25T01:48:58.786Z,1019.87852179
2018-08-25T01:49:11.268Z,1019.94624955
2018-08-25T01:49:23.699Z,1019.94624955
2018-08-25T01:49:36.093Z,1019.94624955
2018-08-25T01:49:48.506Z,1019.94624955
2018-08-25T01:50:00.889Z,1019.94624955
2018-08-25T01:50:13.337Z,1019.87852179
2018-08-25T01:50:25.731Z,1019.87852179
2018-08-25T01:50:38.164Z,1019.87852179
2018-08-25T01:50:50.584Z,1019.87852179
2018-08-25T01:51:03.008Z,1019.94624955
2018-08-25T01:51:15.548Z,1019.94624955
2018-08-25T01:51:27.957Z,1019.94624955
2018-08-25T01:51:40.366Z,1019.94624955
2018-08-25T01:51:52.776Z,1019.94624955
2018-08-25T01:52:05.194Z,1019.94624955
2018-08-25T01:52:17.764Z,1019.94624955
2018-08-25T01:52:30.160Z,1019.94624955
2018-08-25T01:52:42.567Z,1019.94624955
2018-08-25T01:52:55.081Z,1019.94624955
2018-08-25T01:53:07.489Z,1019.87852179
2018-08-25T01:53:19.898Z,1019.87852179
2018-08-25T01:53:32.333Z,1019.87852179
2018-08-25T01:53:44.724Z,1019.87852179
2018-08-25T01:53:57.145Z,1019.87852179
2018-08-25T01:54:09.571Z,1019.81079403
2018-08-25T01:54:21.999Z,1019.81079403
2018-08-25T01:54:34.420Z,1019.81079403
2018-08-25T01:54:46.827Z,1019.81079403
2018-08-25T01:54:59.240Z,1019.81079403
2018-08-25T01:55:11.642Z,1019.81079403
2018-08-25T01:55:24.058Z,1019.81079403
2018-08-25T01:55:36.490Z,1019.81079403
2018-08-25T01:55:48.893Z,1019.81079403
2018-08-25T01:56:01.320Z,1019.81079403
2018-08-25T01:56:14.526Z,1019.81079403
2018-08-25T01:56:26.929Z,1019.81079403
2018-08-25T01:56:39.325Z,1019.81079403
2018-08-25T01:56:51.724Z,1019.81079403
2018-08-25T01:57:04.125Z,1019.81079403
2018-08-25T01:57:16.527Z,1019.81079403
2018-08-25T01:57:28.926Z,1019.81079403
2018-08-25T01:57:41.507Z,1019.81079403
2018-08-25T01:57:53.908Z,1019.81079403
2018-08-25T01:58:06.333Z,1019.74306626
2018-08-25T01:58:18.791Z,1019.74306626
2018-08-25T01:58:31.182Z,1019.74306626
2018-08-25T01:58:43.603Z,1019.74306626
2018-08-25T01:58:56.012Z,1019.74306626
2018-08-25T01:59:08.437Z,1019.6753385
2018-08-25T01:59:20.845Z,1019.6753385
2018-08-25T01:59:33.279Z,1019.6753385
2018-08-25T01:59:45.727Z,1019.6753385
2018-08-25T01:59:58.141Z,1019.6753385
2018-08-25T02:00:10.571Z,1019.74306626
2018-08-25T02:00:23.004Z,1019.74306626
2018-08-25T02:00:35.472Z,1019.74306626
2018-08-25T02:00:47.919Z,1019.74306626
2018-08-25T02:01:00.371Z,1019.74306626
2018-08-25T02:01:12.817Z,1019.81079403
2018-08-25T02:01:25.261Z,1019.81079403
2018-08-25T02:01:37.729Z,1019.81079403
2018-08-25T02:01:50.187Z,1019.81079403
2018-08-25T02:02:02.600Z,1019.87852179
2018-08-25T02:02:15.027Z,1019.87852179
2018-08-25T02:02:27.443Z,1019.87852179
2018-08-25T02:02:40.303Z,1019.87852179
2018-08-25T02:02:54.372Z,1019.87852179
2018-08-25T02:03:06.863Z,1019.84465791
2018-08-25T02:03:19.284Z,1019.84465791
2018-08-25T02:03:31.698Z,1019.84465791
2018-08-25T02:03:44.121Z,1019.84465791
2018-08-25T02:03:56.546Z,1019.84465791
2018-08-25T02:04:08.966Z,1019.77693015
2018-08-25T02:04:21.379Z,1019.77693015
2018-08-25T02:04:33.791Z,1019.77693015
2018-08-25T02:04:46.234Z,1019.77693015
2018-08-25T02:04:58.651Z,1019.77693015
2018-08-25T02:05:11.067Z,1019.74306626
2018-08-25T02:05:23.492Z,1019.74306626
2018-08-25T02:05:36.057Z,1019.74306626
2018-08-25T02:05:48.483Z,1019.74306626
2018-08-25T02:06:00.938Z,1019.74306626
2018-08-25T02:06:13.348Z,1019.77693015
2018-08-25T02:06:25.755Z,1019.77693015
2018-08-25T02:06:38.190Z,1019.77693015
2018-08-25T02:06:50.615Z,1019.77693015
2018-08-25T02:07:03.034Z,1019.81079403
2018-08-25T02:07:15.444Z,1019.81079403
2018-08-25T02:07:27.845Z,1019.81079403
2018-08-25T02:07:40.274Z,1019.81079403